createdAt,value
2023-03-18T00:03:48.783Z,0.80
2023-03-18T00:08:52.572Z,0.70
2023-03-18T00:13:55.634Z,0.70
2023-03-18T00:18:58.489Z,0.60
2023-03-18T00:24:01.800Z,0.60
2023-03-18T00:29:04.896Z,0.50
2023-03-18T00:34:08.374Z,0.50
2023-03-18T00:39:13.320Z,0.50
2023-03-18T00:44:16.344Z,0.40
2023-03-18T00:49:19.925Z,0.40
2023-03-18T00:54:24.783Z,0.40
2023-03-18T00:59:27.877Z,0.30
2023-03-18T01:04:31.302Z,0.30
2023-03-18T01:09:34.468Z,0.20
2023-03-18T01:14:39.671Z,0.20
2023-03-18T01:19:43.725Z,0.30
2023-03-18T01:24:47.197Z,0.30
2023-03-18T01:29:50.221Z,0.30
2023-03-18T01:34:53.129Z,0.30
2023-03-18T01:39:56.135Z,0.30
2023-03-18T01:45:24.763Z,0.30
2023-03-18T01:50:37.968Z,0.30
2023-03-18T01:55:42.412Z,0.20
2023-03-18T02:00:54.683Z,0.20
2023-03-18T02:05:57.884Z,0.20
2023-03-18T02:11:02.382Z,0.20
2023-03-18T02:16:13.817Z,0.30
2023-03-18T02:21:33.403Z,0.30
2023-03-18T02:26:59.044Z,0.30
2023-03-18T02:32:06.202Z,0.30
2023-03-18T02:37:10.050Z,0.30
2023-03-18T02:42:14.569Z,0.20
2023-03-18T02:47:22.874Z,0.20
2023-03-18T02:52:26.789Z,0.20
2023-03-18T02:57:29.757Z,0.00
2023-03-18T03:02:32.909Z,-0.10
2023-03-18T03:07:35.934Z,-0.20
2023-03-18T03:12:39.867Z,-0.20
2023-03-18T03:17:42.795Z,-0.30
2023-03-18T03:22:46.290Z,-0.40
2023-03-18T03:27:49.879Z,-0.30
2023-03-18T03:32:52.895Z,-0.30
2023-03-18T03:37:55.797Z,-0.40
2023-03-18T03:42:59.006Z,-0.40
2023-03-18T03:48:02.332Z,-0.50
2023-03-18T03:53:06.816Z,-0.50
2023-03-18T03:58:10.639Z,-0.60
2023-03-18T04:03:13.677Z,-0.70
2023-03-18T04:08:17.996Z,-0.70
2023-03-18T04:13:20.755Z,-0.80
2023-03-18T04:18:23.686Z,-0.70
2023-03-18T04:23:26.908Z,-0.80
2023-03-18T04:28:30.222Z,-0.80
2023-03-18T04:33:33.732Z,-0.80
2023-03-18T04:38:37.322Z,-0.80
2023-03-18T04:43:40.054Z,-0.80
2023-03-18T04:48:43.632Z,-0.80
2023-03-18T04:53:46.611Z,-0.80
2023-03-18T04:58:49.899Z,-0.90
2023-03-18T05:03:52.807Z,-0.90
2023-03-18T05:08:57.113Z,-1.00
2023-03-18T05:14:00.170Z,-0.90
2023-03-18T05:19:03.597Z,-0.90
2023-03-18T05:24:06.918Z,-0.80
2023-03-18T05:29:09.944Z,-0.70
2023-03-18T05:34:13.609Z,-0.50
2023-03-18T05:39:16.922Z,-0.30
2023-03-18T05:44:19.993Z,-0.10
2023-03-18T05:49:23.714Z,0.20
2023-03-18T05:54:27.080Z,0.40
2023-03-18T05:59:31.616Z,0.70
2023-03-18T06:04:34.606Z,0.90
2023-03-18T06:09:37.718Z,1.10
2023-03-18T06:14:40.606Z,1.40
2023-03-18T06:19:45.079Z,1.60
2023-03-18T06:24:48.530Z,1.80
2023-03-18T06:29:51.749Z,2.10
2023-03-18T06:34:54.668Z,2.30
2023-03-18T06:39:58.661Z,2.40
2023-03-18T06:45:01.824Z,2.50
2023-03-18T06:50:05.900Z,2.60
2023-03-18T06:55:09.505Z,2.80
2023-03-18T07:00:13.293Z,3.00
2023-03-18T07:05:17.240Z,3.30
2023-03-18T07:10:33.016Z,3.60
2023-03-18T07:15:36.363Z,3.90
2023-03-18T07:20:40.267Z,4.20
2023-03-18T07:25:44.785Z,4.50
2023-03-18T07:30:48.158Z,4.70
2023-03-18T07:35:51.643Z,5.10
2023-03-18T07:40:54.580Z,5.40
2023-03-18T07:45:58.710Z,5.70
2023-03-18T07:51:02.766Z,6.10
2023-03-18T07:56:07.328Z,6.30
2023-03-18T08:01:10.414Z,6.60
2023-03-18T08:06:15.525Z,6.90
2023-03-18T08:11:18.738Z,7.20
2023-03-18T08:16:21.773Z,7.70
2023-03-18T08:21:24.803Z,8.40
2023-03-18T08:26:27.955Z,9.00
2023-03-18T08:31:31.172Z,9.70
2023-03-18T08:36:35.221Z,10.40
2023-03-18T08:41:38.808Z,11.00
2023-03-18T08:46:41.912Z,11.60
2023-03-18T08:51:45.116Z,12.20
2023-03-18T08:56:48.060Z,12.80
2023-03-18T09:01:51.604Z,13.20
2023-03-18T09:06:54.683Z,13.70
2023-03-18T09:11:57.686Z,14.20
2023-03-18T09:17:01.158Z,14.60
2023-03-18T09:22:04.623Z,15.10
2023-03-18T09:27:07.650Z,15.40
2023-03-18T09:32:11.272Z,15.50
2023-03-18T09:37:14.989Z,15.30
2023-03-18T09:43:02.514Z,15.10
2023-03-18T09:48:43.481Z,15.10
2023-03-18T09:53:59.587Z,15.30
2023-03-18T09:59:28.726Z,15.70
2023-03-18T10:04:49.433Z,16.40
2023-03-18T10:10:22.627Z,17.00
2023-03-18T10:15:41.581Z,17.30
2023-03-18T10:21:24.774Z,17.00
2023-03-18T10:26:58.073Z,16.90
2023-03-18T10:32:21.614Z,16.90
2023-03-18T10:37:39.384Z,16.80
2023-03-18T10:42:44.107Z,17.00
2023-03-18T10:48:11.006Z,17.30
2023-03-18T10:53:55.689Z,17.90
2023-03-18T10:58:59.139Z,18.40
2023-03-18T11:04:06.977Z,18.70
2023-03-18T11:09:15.927Z,19.00
2023-03-18T11:14:28.908Z,19.50
2023-03-18T11:19:47.856Z,19.90
2023-03-18T11:25:11.668Z,20.10
2023-03-18T11:30:41.063Z,20.40
2023-03-18T11:35:52.007Z,20.60
2023-03-18T11:41:17.622Z,20.80
2023-03-18T11:46:27.633Z,20.80
2023-03-18T11:51:55.234Z,20.70
2023-03-18T11:57:45.289Z,20.80
2023-03-18T12:03:17.052Z,20.90
2023-03-18T12:08:57.072Z,20.90
2023-03-18T12:14:23.486Z,21.20
2023-03-18T12:20:10.176Z,21.50
2023-03-18T12:25:52.695Z,21.60
2023-03-18T12:31:22.970Z,21.50
2023-03-18T12:36:56.250Z,21.50
2023-03-18T12:42:09.228Z,21.40
2023-03-18T12:47:42.201Z,21.10
2023-03-18T12:53:22.935Z,20.70
2023-03-18T12:58:37.902Z,20.30
2023-03-18T13:03:44.785Z,19.90
2023-03-18T13:09:13.094Z,19.50
2023-03-18T13:14:41.198Z,18.90
2023-03-18T13:19:45.150Z,18.30
2023-03-18T13:25:13.814Z,17.90
2023-03-18T13:30:48.674Z,17.70
2023-03-18T13:36:22.827Z,17.70
2023-03-18T13:41:58.079Z,17.70
2023-03-18T13:47:09.123Z,17.80
2023-03-18T13:52:43.947Z,18.00
2023-03-18T13:58:06.610Z,17.60
2023-03-18T14:03:30.116Z,17.40
2023-03-18T14:08:39.305Z,17.40
2023-03-18T14:14:06.087Z,17.50
2023-03-18T14:19:28.723Z,17.60
2023-03-18T14:24:32.168Z,17.70
2023-03-18T14:29:42.356Z,17.80
2023-03-18T14:34:59.011Z,18.00
2023-03-18T14:40:16.286Z,17.90
2023-03-18T14:45:33.604Z,17.90
2023-03-18T14:50:47.566Z,18.10
2023-03-18T14:55:57.249Z,18.20
2023-03-18T15:01:12.297Z,18.10
2023-03-18T15:06:21.972Z,18.10
2023-03-18T15:11:25.576Z,17.90
2023-03-18T15:16:33.176Z,17.80
2023-03-18T15:21:37.601Z,17.60
2023-03-18T15:26:42.508Z,17.60
2023-03-18T15:31:45.779Z,17.40
2023-03-18T15:37:01.013Z,16.90
2023-03-18T15:42:15.555Z,16.40
2023-03-18T15:47:32.224Z,15.90
2023-03-18T15:52:41.896Z,15.60
2023-03-18T15:57:45.102Z,15.20
2023-03-18T16:02:48.809Z,14.80
2023-03-18T16:07:53.071Z,14.40
2023-03-18T16:13:01.941Z,14.10
2023-03-18T16:18:04.956Z,13.70
2023-03-18T16:23:08.145Z,13.50
2023-03-18T16:28:22.568Z,13.20
2023-03-18T16:33:26.224Z,13.00
2023-03-18T16:38:31.110Z,12.80
2023-03-18T16:43:33.995Z,12.60
2023-03-18T16:48:36.862Z,12.40
2023-03-18T16:53:40.345Z,12.20
2023-03-18T16:58:44.777Z,12.00
2023-03-18T17:03:48.163Z,11.80
2023-03-18T17:08:52.552Z,11.60
2023-03-18T17:13:56.453Z,11.40
2023-03-18T17:18:59.596Z,11.20
2023-03-18T17:24:03.705Z,11.00
2023-03-18T17:29:08.079Z,10.80
2023-03-18T17:34:14.060Z,10.60
2023-03-18T17:39:17.709Z,10.40
2023-03-18T17:44:30.185Z,10.20
2023-03-18T17:49:33.176Z,9.90
2023-03-18T17:54:36.607Z,9.70
2023-03-18T17:59:39.582Z,9.40
2023-03-18T18:04:43.463Z,9.20
2023-03-18T18:09:47.344Z,9.00
2023-03-18T18:14:50.743Z,8.80
2023-03-18T18:19:54.732Z,8.70
2023-03-18T18:24:58.112Z,8.50
2023-03-18T18:30:00.938Z,8.30
2023-03-18T18:35:04.556Z,8.10
2023-03-18T18:40:10.708Z,8.00
2023-03-18T18:45:19.164Z,7.80
2023-03-18T18:50:32.279Z,7.70
2023-03-18T18:55:36.077Z,7.50
2023-03-18T19:00:39.153Z,7.40
2023-03-18T19:05:43.931Z,7.30
2023-03-18T19:10:47.011Z,7.20
2023-03-18T19:15:55.987Z,7.10
2023-03-18T19:20:58.955Z,7.00
2023-03-18T19:26:06.378Z,6.90
2023-03-18T19:31:13.852Z,6.80
2023-03-18T19:36:27.205Z,6.70
2023-03-18T19:41:30.723Z,6.60
2023-03-18T19:46:39.231Z,6.50
2023-03-18T19:51:42.641Z,6.40
2023-03-18T19:56:46.241Z,6.40
2023-03-18T20:01:50.557Z,6.30
2023-03-18T20:06:54.857Z,6.40
2023-03-18T20:12:04.526Z,6.40
2023-03-18T20:17:42.345Z,6.40
2023-03-18T20:22:59.441Z,6.50
2023-03-18T20:28:07.524Z,6.40
2023-03-18T20:33:10.615Z,6.30
2023-03-18T20:38:39.265Z,6.20
2023-03-18T20:43:42.751Z,6.10
2023-03-18T20:48:46.158Z,6.00
2023-03-18T20:53:50.349Z,5.90
2023-03-18T20:58:53.732Z,5.80
2023-03-18T21:04:01.752Z,5.60
2023-03-18T21:09:05.277Z,5.50
2023-03-18T21:14:14.729Z,5.40
2023-03-18T21:19:17.673Z,5.30
2023-03-18T21:24:27.675Z,5.20
2023-03-18T21:29:30.708Z,5.10
2023-03-18T21:34:33.823Z,5.00
2023-03-18T21:39:36.889Z,5.00
2023-03-18T21:44:39.956Z,4.90
2023-03-18T21:49:44.134Z,4.80
2023-03-18T21:54:47.422Z,4.80
2023-03-18T21:59:52.557Z,4.70
2023-03-18T22:04:59.257Z,4.70
2023-03-18T22:10:02.406Z,4.60
2023-03-18T22:15:36.778Z,4.50
2023-03-18T22:20:41.095Z,4.50
2023-03-18T22:25:47.337Z,4.50
2023-03-18T22:30:52.840Z,4.50
2023-03-18T22:35:56.498Z,4.40
2023-03-18T22:40:59.463Z,4.40
2023-03-18T22:46:06.613Z,4.40
2023-03-18T22:51:27.771Z,4.40
2023-03-18T22:56:32.419Z,4.40
2023-03-18T23:01:37.419Z,4.30
2023-03-18T23:06:41.738Z,4.20
2023-03-18T23:11:46.761Z,4.20
2023-03-18T23:16:49.726Z,4.10
2023-03-18T23:21:52.648Z,4.00
2023-03-18T23:26:55.604Z,3.90
2023-03-18T23:31:58.853Z,3.80
2023-03-18T23:37:02.701Z,3.80
2023-03-18T23:42:06.248Z,3.70
2023-03-18T23:47:11.158Z,3.60
2023-03-18T23:52:15.823Z,3.60
2023-03-18T23:57:18.791Z,3.60
